Terminal Aerodrome Forecast
Issued by NWS Charleston, WV

Current Version | Previous Version | Graphics & Text | Print | Product List | Glossary On
Versions: 1 2 3 4 5 6 7 8 9 10 11 12 13 14 15 16 17 18 19 20 21 22 23 24 25 26
803
FTUS41 KRLX 161720
TAFEKN
TAF
KEKN 161720Z 1618/1718 VRB04KT P6SM BKN050
     FM170000 00000KT P6SM SKC
     FM170300 00000KT 2SM BR SCT001
     FM170400 00000KT 1/4SM FG VV001
     FM171300 00000KT 1SM BR BKN002
     FM171400 00000KT P6SM SKC
     FM171600 VRB03KT P6SM SCT050=

USA.gov is the U.S. government's official web portal to all federal, state and local government web resources and services.